createdAt,value
2023-06-07T00:01:55.048Z,97858.45
2023-06-07T00:04:22.085Z,97861.56
2023-06-07T00:06:51.028Z,97858.27
2023-06-07T00:09:17.497Z,97857.20
2023-06-07T00:11:44.313Z,97861.52
2023-06-07T00:14:10.784Z,97858.66
2023-06-07T00:16:40.328Z,97857.23
2023-06-07T00:19:06.798Z,97859.66
2023-06-07T00:21:33.247Z,97856.50
2023-06-07T00:23:59.727Z,97856.89
2023-06-07T00:26:26.262Z,97856.08
2023-06-07T00:28:52.992Z,97854.07
2023-06-07T00:31:19.397Z,97856.92
2023-06-07T00:33:45.959Z,97856.57
2023-06-07T00:36:12.366Z,97853.92
2023-06-07T00:38:38.790Z,97855.23
2023-06-07T00:41:05.217Z,97852.47
2023-06-07T00:43:33.988Z,97852.05
2023-06-07T00:46:00.667Z,97850.55
2023-06-07T00:48:28.423Z,97850.26
2023-06-07T00:50:54.933Z,97851.05
2023-06-07T00:53:21.746Z,97848.62
2023-06-07T00:55:48.400Z,97850.33
2023-06-07T00:58:14.853Z,97851.61
2023-06-07T01:03:42.040Z,97850.10
2023-06-07T01:06:08.493Z,97848.08
2023-06-07T01:08:35.066Z,97846.28
2023-06-07T01:11:02.167Z,97844.22
2023-06-07T01:13:29.889Z,97840.68
2023-06-07T01:15:56.450Z,97841.45
2023-06-07T01:18:23.191Z,97837.46
2023-06-07T01:20:52.711Z,97836.37
2023-06-07T01:23:19.243Z,97835.80
2023-06-07T01:25:45.770Z,97834.03
2023-06-07T01:28:12.530Z,97835.34
2023-06-07T01:30:39.364Z,97833.41
2023-06-07T01:33:06.390Z,97832.38
2023-06-07T01:35:33.472Z,97827.15
2023-06-07T01:38:00.807Z,97826.55
2023-06-07T01:40:27.776Z,97830.63
2023-06-07T01:42:54.740Z,97833.27
2023-06-07T01:45:21.280Z,97833.13
2023-06-07T01:47:47.671Z,97832.70
2023-06-07T01:50:20.094Z,97833.11
2023-06-07T01:52:46.434Z,97834.29
2023-06-07T01:55:12.865Z,97831.47
2023-06-07T01:58:05.301Z,97829.27
2023-06-07T02:00:35.695Z,97833.55
2023-06-07T02:03:05.278Z,97830.81
2023-06-07T02:05:37.193Z,97831.02
2023-06-07T02:08:07.756Z,97827.23
2023-06-07T02:10:35.332Z,97824.93
2023-06-07T02:13:03.506Z,97824.45
2023-06-07T02:15:29.925Z,97820.13
2023-06-07T02:17:59.388Z,97818.48
2023-06-07T02:20:26.648Z,97818.08
2023-06-07T02:22:54.717Z,97817.33
2023-06-07T02:25:21.204Z,97817.86
2023-06-07T02:27:49.223Z,97817.20
2023-06-07T02:30:15.724Z,97815.36
2023-06-07T02:32:42.559Z,97815.59
2023-06-07T02:35:09.115Z,97815.20
2023-06-07T02:37:35.587Z,97813.48
2023-06-07T02:40:02.532Z,97815.23
2023-06-07T02:42:30.538Z,97816.44
2023-06-07T02:44:57.153Z,97816.52
2023-06-07T02:47:23.713Z,97817.79
2023-06-07T02:49:50.431Z,97820.70
2023-06-07T02:52:16.782Z,97819.09
2023-06-07T02:54:43.182Z,97820.70
2023-06-07T02:57:09.574Z,97821.48
2023-06-07T02:59:35.990Z,97822.92
2023-06-07T03:02:02.549Z,97824.55
2023-06-07T03:04:29.590Z,97823.73
2023-06-07T03:06:57.846Z,97823.40
2023-06-07T03:09:28.671Z,97827.41
2023-06-07T03:11:55.187Z,97825.80
2023-06-07T03:14:22.451Z,97828.71
2023-06-07T03:16:49.429Z,97825.94
2023-06-07T03:19:16.310Z,97822.48
2023-06-07T03:21:42.949Z,97821.35
2023-06-07T03:24:09.523Z,97818.34
2023-06-07T03:26:36.363Z,97815.36
2023-06-07T03:29:03.000Z,97818.80
2023-06-07T03:31:33.076Z,97821.27
2023-06-07T03:34:02.718Z,97822.46
2023-06-07T03:36:29.425Z,97823.34
2023-06-07T03:38:57.066Z,97826.98
2023-06-07T03:41:23.641Z,97829.30
2023-06-07T03:43:50.592Z,97828.49
2023-06-07T03:46:17.141Z,97833.53
2023-06-07T03:48:44.017Z,97832.10
2023-06-07T03:51:10.440Z,97835.92
2023-06-07T03:53:38.727Z,97834.12
2023-06-07T03:56:05.537Z,97833.91
2023-06-07T03:58:32.585Z,97832.59
2023-06-07T04:01:04.258Z,97834.61
2023-06-07T04:03:30.784Z,97831.13
2023-06-07T04:05:59.803Z,97831.83
2023-06-07T04:08:27.258Z,97825.46
2023-06-07T04:10:53.715Z,97825.92
2023-06-07T04:13:20.215Z,97825.30
2023-06-07T04:15:46.889Z,97827.16
2023-06-07T04:18:13.416Z,97830.13
2023-06-07T04:20:40.380Z,97828.73
2023-06-07T04:23:07.421Z,97827.48
2023-06-07T04:25:33.960Z,97830.42
2023-06-07T04:28:02.235Z,97827.39
2023-06-07T04:30:29.589Z,97829.19
2023-06-07T04:32:56.083Z,97830.92
2023-06-07T04:35:22.962Z,97826.74
2023-06-07T04:37:49.675Z,97831.66
2023-06-07T04:40:16.390Z,97832.27
2023-06-07T04:42:53.348Z,97831.35
2023-06-07T04:45:19.963Z,97831.77
2023-06-07T04:47:46.620Z,97830.43
2023-06-07T04:50:14.528Z,97829.07
2023-06-07T04:52:40.925Z,97834.84
2023-06-07T04:55:07.615Z,97830.58
2023-06-07T04:57:34.267Z,97830.95
2023-06-07T05:00:00.815Z,97830.64
2023-06-07T05:02:34.484Z,97827.17
2023-06-07T05:05:00.878Z,97831.89
2023-06-07T05:07:28.047Z,97836.09
2023-06-07T05:09:55.345Z,97837.86
2023-06-07T05:12:22.608Z,97836.79
2023-06-07T05:14:50.252Z,97834.42
2023-06-07T05:17:17.057Z,97829.89
2023-06-07T05:19:43.437Z,97834.11
2023-06-07T05:22:10.086Z,97835.98
2023-06-07T05:24:36.854Z,97839.33
2023-06-07T05:27:03.348Z,97839.08
2023-06-07T05:29:29.787Z,97834.08
2023-06-07T05:31:56.855Z,97835.23
2023-06-07T05:34:23.435Z,97838.79
2023-06-07T05:36:49.987Z,97840.11
2023-06-07T05:39:16.450Z,97840.00
2023-06-07T05:41:44.218Z,97842.05
2023-06-07T05:44:10.767Z,97841.63
2023-06-07T05:46:37.302Z,97842.80
2023-06-07T05:49:03.781Z,97847.86
2023-06-07T05:51:30.320Z,97846.21
2023-06-07T05:53:56.706Z,97846.12
2023-06-07T05:56:23.079Z,97846.04
2023-06-07T05:58:49.493Z,97846.70
2023-06-07T06:01:16.059Z,97843.07
2023-06-07T06:03:42.497Z,97845.19
2023-06-07T06:06:12.722Z,97845.59
2023-06-07T06:08:39.205Z,97846.38
2023-06-07T06:11:05.678Z,97849.68
2023-06-07T06:13:32.565Z,97851.99
2023-06-07T06:15:58.989Z,97852.55
2023-06-07T06:18:25.541Z,97852.55
2023-06-07T06:20:51.948Z,97857.61
2023-06-07T06:23:18.444Z,97851.94
2023-06-07T06:25:45.028Z,97853.65
2023-06-07T06:28:11.481Z,97854.88
2023-06-07T06:30:38.031Z,97856.61
2023-06-07T06:33:04.490Z,97853.47
2023-06-07T06:35:30.880Z,97855.36
2023-06-07T06:37:57.413Z,97856.61
2023-06-07T06:40:24.036Z,97856.89
2023-06-07T06:42:50.424Z,97857.48
2023-06-07T06:45:22.433Z,97853.34
2023-06-07T06:47:48.918Z,97855.55
2023-06-07T06:50:31.438Z,97856.04
2023-06-07T06:52:59.868Z,97855.01
2023-06-07T06:55:26.314Z,97858.98
2023-06-07T06:57:52.712Z,97857.40
2023-06-07T07:00:19.438Z,97856.56
2023-06-07T07:02:46.022Z,97858.67
2023-06-07T07:05:12.514Z,97857.37
2023-06-07T07:07:38.971Z,97859.80
2023-06-07T07:10:06.358Z,97858.05
2023-06-07T07:12:32.937Z,97856.45
2023-06-07T07:14:59.463Z,97854.23
2023-06-07T07:17:25.913Z,97858.11
2023-06-07T07:19:52.405Z,97857.88
2023-06-07T07:22:18.890Z,97856.34
2023-06-07T07:24:45.298Z,97856.48
2023-06-07T07:27:11.740Z,97856.02
2023-06-07T07:29:38.207Z,97857.64
2023-06-07T07:32:04.916Z,97858.56
2023-06-07T07:34:31.388Z,97859.48
2023-06-07T07:36:57.859Z,97862.98
2023-06-07T07:39:24.233Z,97861.91
2023-06-07T07:41:50.613Z,97858.88
2023-06-07T07:44:19.845Z,97858.16
2023-06-07T07:46:46.278Z,97861.62
2023-06-07T07:49:12.730Z,97861.91
2023-06-07T07:51:39.251Z,97858.98
2023-06-07T07:54:06.346Z,97861.34
2023-06-07T07:56:32.725Z,97863.96
2023-06-07T07:58:59.160Z,97864.71
2023-06-07T08:01:25.541Z,97863.81
2023-06-07T08:03:52.137Z,97865.05
2023-06-07T08:06:18.829Z,97866.23
2023-06-07T08:08:48.261Z,97862.86
2023-06-07T08:11:14.723Z,97862.90
2023-06-07T08:13:41.293Z,97865.23
2023-06-07T08:16:07.756Z,97867.30
2023-06-07T08:18:34.110Z,97864.75
2023-06-07T08:21:00.750Z,97869.48
2023-06-07T08:23:27.234Z,97868.25
2023-06-07T08:25:53.641Z,97866.93
2023-06-07T08:28:20.035Z,97872.15
2023-06-07T08:30:46.548Z,97872.19
2023-06-07T08:33:12.993Z,97872.27
2023-06-07T08:35:39.442Z,97876.65
2023-06-07T08:38:05.811Z,97871.89
2023-06-07T08:40:32.905Z,97871.39
2023-06-07T08:42:59.316Z,97872.50
2023-06-07T08:45:25.698Z,97871.91
2023-06-07T08:47:52.178Z,97872.58
2023-06-07T08:50:21.182Z,97874.63
2023-06-07T08:52:50.102Z,97870.42
2023-06-07T08:55:16.865Z,97871.28
2023-06-07T08:57:46.159Z,97872.61
2023-06-07T09:00:13.130Z,97870.73
2023-06-07T09:02:39.784Z,97870.81
2023-06-07T09:05:06.860Z,97870.09
2023-06-07T09:07:33.958Z,97870.58
2023-06-07T09:10:00.426Z,97869.80
2023-06-07T09:12:26.841Z,97871.95
2023-06-07T09:14:53.900Z,97874.27
2023-06-07T09:17:20.415Z,97871.23
2023-06-07T09:19:46.880Z,97878.30
2023-06-07T09:22:13.542Z,97872.97
2023-06-07T09:24:40.338Z,97870.17
2023-06-07T09:27:07.412Z,97869.11
2023-06-07T09:29:43.454Z,97874.95
2023-06-07T09:32:22.644Z,97876.95
2023-06-07T09:34:52.069Z,97880.00
2023-06-07T09:37:19.390Z,97874.61
2023-06-07T09:39:45.898Z,97872.33
2023-06-07T09:42:15.864Z,97871.02
2023-06-07T09:44:42.624Z,97869.89
2023-06-07T09:47:29.505Z,97870.85
2023-06-07T09:50:05.824Z,97868.11
2023-06-07T09:52:32.471Z,97868.55
2023-06-07T09:54:58.862Z,97862.30
2023-06-07T09:57:25.255Z,97861.12
2023-06-07T09:59:58.959Z,97864.84
2023-06-07T10:02:26.543Z,97865.07
2023-06-07T10:04:54.427Z,97862.39
2023-06-07T10:07:27.041Z,97860.04
2023-06-07T10:09:54.045Z,97859.80
2023-06-07T10:12:22.368Z,97860.16
2023-06-07T10:14:49.304Z,97855.24
2023-06-07T10:17:16.803Z,97854.21
2023-06-07T10:19:49.561Z,97853.38
2023-06-07T10:22:20.111Z,97852.33
2023-06-07T10:24:56.973Z,97852.27
2023-06-07T10:27:24.223Z,97854.89
2023-06-07T10:30:01.961Z,97851.23
2023-06-07T10:32:29.485Z,97848.76
2023-06-07T10:34:56.583Z,97846.05
2023-06-07T10:40:01.523Z,97840.99
2023-06-07T10:53:51.883Z,97838.29
2023-06-07T10:56:53.426Z,97839.46
2023-06-07T10:59:20.865Z,97834.79
2023-06-07T11:01:48.639Z,97832.04
2023-06-07T11:04:33.759Z,97830.73
2023-06-07T11:07:16.719Z,97831.60
2023-06-07T11:09:47.769Z,97832.45
2023-06-07T11:20:04.434Z,97832.16
2023-06-07T11:22:52.462Z,97827.59
2023-06-07T11:45:07.803Z,97816.81
2023-06-07T12:28:26.329Z,97787.34
2023-06-07T12:30:52.923Z,97792.76
2023-06-07T12:33:19.409Z,97787.00
2023-06-07T12:35:46.710Z,97788.13
2023-06-07T12:38:13.196Z,97787.85
2023-06-07T12:40:39.642Z,97788.91
2023-06-07T12:43:06.160Z,97782.66
2023-06-07T12:45:32.572Z,97780.61
2023-06-07T12:48:00.002Z,97778.48
2023-06-07T12:50:29.802Z,97777.96
2023-06-07T12:52:59.051Z,97773.93
2023-06-07T12:55:26.624Z,97773.58
2023-06-07T12:57:55.913Z,97778.20
2023-06-07T13:00:29.204Z,97777.54
2023-06-07T13:02:58.868Z,97775.77
2023-06-07T13:05:25.664Z,97774.12
2023-06-07T13:07:52.103Z,97782.46
2023-06-07T13:10:18.559Z,97782.61
2023-06-07T13:12:44.945Z,97773.87
2023-06-07T13:15:11.390Z,97773.98
2023-06-07T13:17:38.176Z,97769.33
2023-06-07T13:20:05.350Z,97764.72
2023-06-07T13:22:32.274Z,97761.45
2023-06-07T13:24:59.122Z,97768.37
2023-06-07T13:27:25.549Z,97769.27
2023-06-07T14:00:31.031Z,97766.77
2023-06-07T14:02:57.519Z,97768.64
2023-06-07T14:05:23.972Z,97769.36
2023-06-07T14:07:50.491Z,97766.54
2023-06-07T14:10:16.917Z,97767.65
2023-06-07T14:12:43.321Z,97765.32
2023-06-07T14:15:10.002Z,97763.55
2023-06-07T14:17:36.432Z,97762.55
2023-06-07T14:20:03.040Z,97761.92
2023-06-07T14:22:29.656Z,97764.97
2023-06-07T14:24:56.039Z,97762.73
2023-06-07T14:27:22.661Z,97765.52
2023-06-07T14:29:49.061Z,97762.51
2023-06-07T14:32:15.751Z,97765.11
2023-06-07T14:34:42.327Z,97764.89
2023-06-07T14:37:08.734Z,97762.18
2023-06-07T14:39:37.451Z,97763.64
2023-06-07T14:42:03.976Z,97763.71
2023-06-07T14:44:30.476Z,97761.28
2023-06-07T14:46:56.909Z,97761.66
2023-06-07T14:49:23.320Z,97768.78
2023-06-07T14:51:49.724Z,97772.70
2023-06-07T14:54:18.910Z,97771.79
2023-06-07T14:56:45.490Z,97771.11
2023-06-07T14:59:13.855Z,97772.98
2023-06-07T15:01:41.646Z,97780.75
2023-06-07T15:04:08.611Z,97772.73
2023-06-07T15:06:35.339Z,97772.56
2023-06-07T15:09:02.127Z,97770.71
2023-06-07T15:11:28.932Z,97771.55
2023-06-07T15:13:55.874Z,97769.70
2023-06-07T16:35:31.345Z,97792.15
2023-06-07T16:38:46.461Z,97790.74
2023-06-07T16:48:36.743Z,97789.98
2023-06-07T16:52:06.937Z,97786.07
2023-06-07T16:57:23.893Z,97793.66
2023-06-07T16:59:52.380Z,97797.55
2023-06-07T17:02:24.135Z,97800.20
2023-06-07T17:05:02.458Z,97802.59
2023-06-07T17:07:53.986Z,97810.27
2023-06-07T17:10:29.656Z,97808.52
2023-06-07T17:13:01.268Z,97808.30
2023-06-07T17:15:27.708Z,97811.77
2023-06-07T17:17:54.159Z,97808.24
2023-06-07T17:20:20.526Z,97810.66
2023-06-07T17:22:46.946Z,97807.75
2023-06-07T17:25:13.371Z,97807.44
2023-06-07T17:27:39.659Z,97804.40
2023-06-07T17:30:09.053Z,97802.65
2023-06-07T17:32:35.687Z,97801.67
2023-06-07T17:35:05.596Z,97808.14
2023-06-07T17:37:32.043Z,97809.23
2023-06-07T17:39:58.722Z,97809.89
2023-06-07T17:42:25.215Z,97808.06
2023-06-07T17:44:51.972Z,97817.83
2023-06-07T17:47:18.969Z,97815.55
2023-06-07T17:49:45.727Z,97813.79
2023-06-07T17:52:21.568Z,97811.40
2023-06-07T17:54:51.224Z,97811.27
2023-06-07T17:57:17.745Z,97810.33
2023-06-07T17:59:45.021Z,97808.12
2023-06-07T18:02:11.565Z,97807.84
2023-06-07T18:04:38.360Z,97808.48
2023-06-07T18:07:05.300Z,97811.10
2023-06-07T18:09:34.741Z,97807.14
2023-06-07T18:12:01.600Z,97805.80
2023-06-07T18:14:28.408Z,97807.45
2023-06-07T18:16:57.586Z,97811.86
2023-06-07T18:19:24.373Z,97805.28
2023-06-07T18:21:53.562Z,97808.29
2023-06-07T18:24:24.270Z,97808.35
2023-06-07T18:26:50.929Z,97809.23
2023-06-07T18:29:17.556Z,97808.95
2023-06-07T18:31:44.057Z,97809.42
2023-06-07T18:34:10.897Z,97812.20
2023-06-07T18:36:37.592Z,97818.39
2023-06-07T18:39:04.038Z,97820.90
2023-06-07T18:41:33.875Z,97825.11
2023-06-07T18:44:00.377Z,97825.60
2023-06-07T18:46:27.120Z,97832.66
2023-06-07T18:48:53.634Z,97829.91
2023-06-07T18:51:20.108Z,97832.84
2023-06-07T18:53:46.469Z,97831.13
2023-06-07T18:59:14.180Z,97839.85
2023-06-07T19:01:51.389Z,97842.17
2023-06-07T19:04:19.152Z,97843.27
2023-06-07T19:06:50.434Z,97847.30
2023-06-07T19:09:21.357Z,97847.67
2023-06-07T19:11:47.766Z,97848.41
2023-06-07T19:14:14.464Z,97856.11
2023-06-07T19:16:41.181Z,97857.63
2023-06-07T19:19:07.954Z,97858.61
2023-06-07T19:21:34.446Z,97860.72
2023-06-07T19:24:04.097Z,97861.54
2023-06-07T19:26:31.034Z,97862.77
2023-06-07T19:28:58.705Z,97860.39
2023-06-07T19:31:25.316Z,97861.14
2023-06-07T19:33:52.225Z,97863.52
2023-06-07T19:36:18.728Z,97864.58
2023-06-07T19:38:45.119Z,97868.20
2023-06-07T19:41:26.784Z,97870.25
2023-06-07T19:43:53.587Z,97869.52
2023-06-07T19:46:20.027Z,97866.41
2023-06-07T19:48:46.569Z,97868.95
2023-06-07T19:51:13.326Z,97865.52
2023-06-07T19:53:39.850Z,97868.50
2023-06-07T19:56:06.275Z,97874.42
2023-06-07T19:58:32.720Z,97872.90
2023-06-07T20:00:59.183Z,97874.92
2023-06-07T20:03:25.848Z,97873.34
2023-06-07T20:05:53.478Z,97872.91
2023-06-07T20:08:19.875Z,97873.21
2023-06-07T20:10:46.525Z,97870.64
2023-06-07T20:13:13.588Z,97867.48
2023-06-07T20:15:40.148Z,97867.14
2023-06-07T20:18:06.617Z,97868.13
2023-06-07T20:20:33.331Z,97865.45
2023-06-07T20:23:00.856Z,97866.64
2023-06-07T20:25:27.365Z,97865.42
2023-06-07T20:27:54.244Z,97863.67
2023-06-07T20:30:20.777Z,97862.66
2023-06-07T20:32:47.350Z,97862.27
2023-06-07T20:35:14.095Z,97864.08
2023-06-07T20:40:41.874Z,97871.35
2023-06-07T20:43:08.386Z,97871.17
2023-06-07T20:45:34.914Z,97868.00
2023-06-07T20:48:01.700Z,97867.34
2023-06-07T20:50:28.264Z,97863.83
2023-06-07T20:52:54.726Z,97856.04
2023-06-07T20:55:21.184Z,97858.02
2023-06-07T20:57:48.255Z,97857.02
2023-06-07T21:00:14.861Z,97855.75
2023-06-07T21:02:41.455Z,97857.48
2023-06-07T21:05:08.153Z,97857.45
2023-06-07T21:07:34.874Z,97856.76
2023-06-07T21:10:01.410Z,97857.52
2023-06-07T21:12:28.279Z,97857.14
2023-06-07T21:14:54.704Z,97858.23
2023-06-07T21:17:21.501Z,97860.94
2023-06-07T21:19:48.042Z,97859.95
2023-06-07T21:22:14.523Z,97859.61
2023-06-07T21:24:40.925Z,97859.89
2023-06-07T21:27:07.424Z,97857.61
2023-06-07T21:29:34.060Z,97859.91
2023-06-07T21:32:00.796Z,97862.76
2023-06-07T21:34:27.648Z,97860.17
2023-06-07T21:36:54.034Z,97861.67
2023-06-07T21:39:20.498Z,97863.36
2023-06-07T21:41:46.981Z,97863.12
2023-06-07T21:44:13.371Z,97867.20
2023-06-07T21:46:39.872Z,97868.89
2023-06-07T21:49:06.439Z,97868.14
2023-06-07T21:52:04.679Z,97867.86
2023-06-07T21:54:31.302Z,97864.41
2023-06-07T21:57:14.382Z,97865.56
2023-06-07T21:59:41.691Z,97866.39
2023-06-07T22:02:09.511Z,97866.33
2023-06-07T22:04:36.062Z,97865.65
2023-06-07T22:07:09.686Z,97863.18
2023-06-07T22:09:38.382Z,97860.86
2023-06-07T22:12:14.239Z,97858.11
2023-06-07T22:14:40.879Z,97860.34
2023-06-07T22:17:07.341Z,97858.80
2023-06-07T22:19:33.839Z,97859.96
2023-06-07T22:22:00.292Z,97861.46
2023-06-07T22:24:26.710Z,97857.99
2023-06-07T22:26:53.801Z,97860.73
2023-06-07T22:29:20.184Z,97860.44
2023-06-07T22:31:46.894Z,97858.06
2023-06-07T22:34:14.370Z,97862.34
2023-06-07T22:36:40.821Z,97863.13
2023-06-07T22:39:08.893Z,97858.33
2023-06-07T22:41:35.408Z,97859.96
2023-06-07T22:44:01.984Z,97858.05
2023-06-07T22:46:28.591Z,97851.91
2023-06-07T22:48:55.184Z,97858.88
2023-06-07T22:51:21.820Z,97858.34
2023-06-07T22:53:48.146Z,97860.47
2023-06-07T22:56:14.957Z,97858.38
2023-06-07T22:58:41.543Z,97856.52
2023-06-07T23:01:07.920Z,97855.17
2023-06-07T23:03:34.506Z,97857.38
2023-06-07T23:06:01.523Z,97854.77
2023-06-07T23:08:28.169Z,97858.42
2023-06-07T23:10:55.143Z,97860.30
2023-06-07T23:13:22.741Z,97856.36
2023-06-07T23:15:49.430Z,97856.01
2023-06-07T23:18:16.342Z,97855.27
2023-06-07T23:20:43.587Z,97848.42
2023-06-07T23:23:10.218Z,97848.17
2023-06-07T23:25:36.640Z,97842.65
2023-06-07T23:28:03.039Z,97843.05
2023-06-07T23:30:29.709Z,97843.70
2023-06-07T23:32:56.332Z,97839.92
2023-06-07T23:35:23.046Z,97836.09
2023-06-07T23:37:49.559Z,97831.75
2023-06-07T23:40:16.042Z,97831.62
2023-06-07T23:42:42.941Z,97832.23
2023-06-07T23:45:09.591Z,97835.41
2023-06-07T23:47:36.158Z,97832.65
2023-06-07T23:50:06.665Z,97837.42
2023-06-07T23:52:33.471Z,97836.49
2023-06-07T23:54:59.904Z,97834.90
2023-06-07T23:57:26.615Z,97834.81
2023-06-07T23:59:52.965Z,97835.93
